Time;durP1;ratioP1;P1;durP2;ratioP2;P2;SDS_P1;SDS_P2;PMS_P1;PMS_P2;Temp;Humidity;BMP_temperature;BMP_pressure;BME280_temperature;BME280_humidity;BME280_pressure;Samples;Min_cycle;Max_cycle;Signal;HPM_P1;HPM_P2
2023/03/06 00:04:57;;;;;;;9.65;4.15;;;;;;;-1.68;75.34;99275.97;30613919;28;97129;-62
2023/03/06 00:19:58;;;;;;;6.07;3.13;;;;;;;-1.93;75.77;99275.19;30612198;28;96706;-62
2023/03/06 00:34:58;;;;;;;9.07;4.18;;;;;;;-2.21;75.59;99264.16;30632830;28;96762;-62
2023/03/06 00:49:58;;;;;;;7.20;3.90;;;;;;;-2.16;76.83;99251.63;30631369;28;96847;-62
2023/03/06 01:04:59;;;;;;;9.93;4.82;;;;;;;-2.03;76.85;99229.84;30630494;28;96684;-61
2023/03/06 01:19:59;;;;;;;6.32;3.28;;;;;;;-1.89;77.38;99221.81;30628969;28;96955;-61
2023/03/06 01:35:02;;;;;;;6.38;3.50;;;;;;;-1.78;76.92;99203.53;30627967;28;96575;-61
2023/03/06 01:50:03;;;;;;;30.42;16.73;;;;;;;-1.59;77.15;99189.94;30625670;28;96568;-63
2023/03/06 02:05:06;;;;;;;6.00;4.63;;;;;;;-1.46;77.21;99179.38;30624745;28;96589;-63
2023/03/06 02:20:30;;;;;;;6.07;3.60;;;;;;;-1.58;76.73;99167.28;30624786;28;96943;-64
2023/03/06 02:35:35;;;;;;;5.13;3.17;;;;;;;-1.63;77.47;99146.72;30622516;28;97374;-63
2023/03/06 02:50:35;;;;;;;9.27;4.97;;;;;;;-1.39;78.06;99125.72;30620186;28;96943;-63
2023/03/06 03:05:35;;;;;;;9.10;5.20;;;;;;;-1.29;78.28;99110.13;30619466;28;96657;-62
2023/03/06 03:20:40;;;;;;;11.25;5.57;;;;;;;-1.11;77.88;99100.00;30618082;28;96846;-63
2023/03/06 03:35:40;;;;;;;7.20;5.05;;;;;;;-0.86;77.76;99079.75;30616038;28;96665;-62
2023/03/06 03:50:41;;;;;;;11.85;6.43;;;;;;;-0.83;77.99;99062.97;30613903;28;98439;-63
2023/03/06 04:05:41;;;;;;;10.82;6.97;;;;;;;-0.86;78.29;99049.19;30612046;28;96641;-63
2023/03/06 04:20:43;;;;;;;13.65;8.23;;;;;;;-0.84;78.64;99038.59;30611401;28;96820;-62
2023/03/06 04:35:44;;;;;;;24.02;12.52;;;;;;;-0.97;78.42;99024.88;30610285;28;96525;-63
2023/03/06 04:50:44;;;;;;;12.68;8.73;;;;;;;-0.97;78.96;99011.78;30607329;28;97181;-62
2023/03/06 05:05:45;;;;;;;13.02;8.95;;;;;;;-1.03;79.71;99002.69;30606975;28;96543;-63
2023/03/06 05:20:46;;;;;;;14.07;7.40;;;;;;;-0.83;79.76;99001.03;30624225;28;96794;-63
2023/03/06 05:35:47;;;;;;;12.43;6.93;;;;;;;-0.65;80.06;98993.47;30625168;28;96903;-63
2023/03/06 05:50:54;;;;;;;12.48;6.82;;;;;;;-0.27;80.46;98985.97;30622058;28;97568;-63
2023/03/06 06:05:54;;;;;;;11.00;6.50;;;;;;;0.16;80.12;98985.72;30623018;28;96616;-63
2023/03/06 06:20:55;;;;;;;7.10;5.10;;;;;;;0.58;79.70;98991.75;30619054;28;96746;-63
2023/03/06 06:35:55;;;;;;;10.82;6.13;;;;;;;1.00;78.67;99008.06;30618242;28;96685;-63
2023/03/06 06:50:57;;;;;;;7.07;4.72;;;;;;;1.32;78.08;99012.16;30616981;28;96837;-63
2023/03/06 07:05:57;;;;;;;30.48;13.48;;;;;;;1.57;77.11;99009.09;30615629;28;96450;-63
2023/03/06 07:20:58;;;;;;;17.42;8.80;;;;;;;1.81;75.81;99009.47;30614533;28;96584;-63
2023/03/06 07:35:58;;;;;;;14.10;8.35;;;;;;;2.17;74.85;99017.50;30613981;28;96722;-63
2023/03/06 07:51:06;;;;;;;8.45;5.28;;;;;;;2.51;72.62;99026.59;30609598;28;96644;-63
2023/03/06 08:06:12;;;;;;;13.00;9.73;;;;;;;3.25;72.55;99035.19;30610208;28;96775;-63
2023/03/06 08:21:16;;;;;;;14.57;9.02;;;;;;;4.19;71.51;99024.97;30609700;28;96696;-64
2023/03/06 08:36:17;;;;;;;16.00;10.33;;;;;;;4.03;68.26;99026.53;30608150;28;96641;-61
2023/03/06 08:51:18;;;;;;;16.38;8.15;;;;;;;4.49;68.00;99028.88;30619262;28;96978;-62
2023/03/06 09:06:19;;;;;;;14.73;9.50;;;;;;;4.93;66.60;99027.00;30626530;28;97263;-62
2023/03/06 09:21:20;;;;;;;15.52;8.38;;;;;;;6.93;62.94;99026.25;30624675;28;96812;-62
2023/03/06 09:36:21;;;;;;;10.77;7.10;;;;;;;9.01;59.17;99029.28;30624463;28;97606;-62
2023/03/06 09:51:31;;;;;;;9.37;6.87;;;;;;;9.81;54.70;99021.16;30624202;28;96785;-62
2023/03/06 10:06:44;;;;;;;12.70;7.70;;;;;;;10.72;52.49;99009.59;30620708;28;96824;-62
2023/03/06 10:21:49;;;;;;;7.73;5.97;;;;;;;12.47;47.26;98999.69;30618502;28;97473;-63
2023/03/06 10:36:49;;;;;;;8.03;5.00;;;;;;;12.95;41.90;98993.09;30618765;28;96688;-64
2023/03/06 10:52:23;;;;;;;10.55;5.63;;;;;;;12.31;41.92;98976.94;30618019;28;96836;-64
2023/03/06 11:07:29;;;;;;;8.30;6.20;;;;;;;11.72;41.25;98966.19;30604214;28;96801;-63
2023/03/06 11:22:30;;;;;;;8.63;5.40;;;;;;;13.53;39.25;98941.22;30615505;28;96644;-64
2023/03/06 11:37:30;;;;;;;9.85;6.22;;;;;;;14.76;35.17;98941.25;30613194;28;97467;-63
2023/03/06 11:52:44;;;;;;;8.57;6.07;;;;;;;15.32;32.17;98927.63;30611745;28;96795;-63
2023/03/06 12:07:50;;;;;;;8.47;6.03;;;;;;;15.61;30.37;98911.63;30610408;28;96704;-63
2023/03/06 12:23:12;;;;;;;7.30;4.80;;;;;;;14.24;31.19;98896.19;30608906;28;97412;-63
2023/03/06 12:38:27;;;;;;;10.67;6.00;;;;;;;12.80;33.57;98897.97;30609119;28;97002;-62
2023/03/06 12:53:30;;;;;;;10.03;5.43;;;;;;;10.21;36.33;98877.72;30606139;28;97397;-63
2023/03/06 13:08:58;;;;;;;7.37;4.77;;;;;;;7.21;41.71;98879.25;30606101;28;96684;-63
2023/03/06 13:24:03;;;;;;;9.83;6.10;;;;;;;6.14;44.29;98862.38;30605090;28;98574;-62
2023/03/06 13:39:11;;;;;;;10.13;5.68;;;;;;;5.92;45.62;98856.81;30619051;28;97246;-63
2023/03/06 13:54:38;;;;;;;12.55;6.57;;;;;;;5.88;46.46;98873.22;30621920;28;96820;-62
2023/03/06 14:09:44;;;;;;;13.63;8.15;;;;;;;5.59;50.57;98866.69;30617152;28;97616;-63
2023/03/06 14:24:54;;;;;;;11.15;7.35;;;;;;;6.29;51.99;98848.38;30618115;28;96701;-63
2023/03/06 14:39:55;;;;;;;11.48;7.38;;;;;;;6.74;51.67;98842.25;30617476;28;96657;-64
2023/03/06 14:54:55;;;;;;;12.53;7.83;;;;;;;6.76;51.26;98829.66;30617747;28;97258;-63
2023/03/06 15:09:57;;;;;;;12.43;6.95;;;;;;;6.67;51.47;98827.25;30616823;28;96650;-64
2023/03/06 15:25:25;;;;;;;15.00;8.38;;;;;;;5.83;52.13;98827.97;30613767;28;99510;-64
2023/03/06 15:40:29;;;;;;;15.32;9.05;;;;;;;5.31;53.54;98830.16;30613853;28;97424;-62
2023/03/06 15:55:31;;;;;;;15.23;9.13;;;;;;;4.96;54.69;98832.22;30610728;28;96596;-62
2023/03/06 16:10:36;;;;;;;21.02;9.65;;;;;;;4.48;55.28;98823.34;30609602;28;96954;-62
2023/03/06 16:25:39;;;;;;;13.18;9.13;;;;;;;3.82;56.43;98833.78;30609003;28;96959;-61
2023/03/06 16:40:42;;;;;;;18.50;10.13;;;;;;;3.45;57.89;98838.41;30608520;28;96855;-63
2023/03/06 16:55:43;;;;;;;16.30;10.38;;;;;;;3.41;59.02;98839.69;30605743;28;96604;-62
2023/03/06 17:10:43;;;;;;;20.00;11.75;;;;;;;3.22;59.34;98849.47;30615214;28;96762;-63
2023/03/06 17:25:44;;;;;;;25.88;14.63;;;;;;;3.20;60.07;98866.41;30623694;28;97274;-62
2023/03/06 17:40:44;;;;;;;15.70;9.73;;;;;;;3.24;60.44;98851.13;30621753;28;97312;-61
2023/03/06 17:55:44;;;;;;;17.58;9.93;;;;;;;3.02;60.83;98869.06;30623111;28;96652;-62
2023/03/06 18:10:46;;;;;;;21.90;13.20;;;;;;;2.84;61.55;98869.13;30621392;28;96806;-63
2023/03/06 18:25:47;;;;;;;19.80;11.55;;;;;;;2.71;61.42;98878.22;30619601;28;98423;-63
2023/03/06 18:40:47;;;;;;;28.77;13.65;;;;;;;2.47;62.88;98886.72;30619778;28;96719;-62
2023/03/06 18:55:50;;;;;;;18.67;12.00;;;;;;;2.30;63.21;98895.44;30618885;28;97389;-62
2023/03/06 19:10:50;;;;;;;23.65;12.73;;;;;;;2.37;64.14;98885.97;30615689;28;97171;-61
2023/03/06 19:25:58;;;;;;;22.10;13.45;;;;;;;2.41;63.83;98891.78;30615100;28;97283;-61
2023/03/06 19:40:59;;;;;;;20.42;12.20;;;;;;;2.35;63.79;98894.03;30614527;28;96759;-61
2023/03/06 19:56:14;;;;;;;23.55;13.10;;;;;;;2.46;64.35;98900.00;30612611;28;96961;-63
2023/03/06 20:11:20;;;;;;;23.35;13.50;;;;;;;2.64;64.85;98913.19;30611470;28;96614;-63
2023/03/06 20:26:21;;;;;;;23.27;14.80;;;;;;;2.61;64.45;98919.56;30610995;28;97616;-62
2023/03/06 20:41:24;;;;;;;24.88;14.25;;;;;;;2.52;65.55;98930.97;30612998;28;96751;-63
2023/03/06 20:56:28;;;;;;;26.60;14.88;;;;;;;2.33;65.89;98921.41;30628437;28;96685;-62
2023/03/06 21:11:28;;;;;;;27.30;15.17;;;;;;;2.16;66.96;98921.25;30626605;28;96760;-62
2023/03/06 21:26:32;;;;;;;29.63;16.33;;;;;;;2.03;67.32;98908.44;30626228;28;96745;-62
2023/03/06 21:41:33;;;;;;;25.73;15.10;;;;;;;2.06;67.92;98920.47;30627284;28;96709;-62
2023/03/06 21:56:34;;;;;;;35.25;19.35;;;;;;;1.93;67.87;98904.22;30623900;28;97628;-63
2023/03/06 22:11:35;;;;;;;34.08;18.17;;;;;;;1.74;68.49;98907.78;30623223;28;96777;-63
2023/03/06 22:26:36;;;;;;;34.50;18.20;;;;;;;1.77;69.17;98899.59;30622183;28;96928;-62
2023/03/06 22:41:36;;;;;;;34.72;18.35;;;;;;;1.82;69.30;98908.69;30620367;28;97655;-62
2023/03/06 22:56:36;;;;;;;34.97;18.70;;;;;;;1.64;69.23;98895.53;30620098;28;96913;-62
2023/03/06 23:11:37;;;;;;;33.88;16.95;;;;;;;1.53;69.93;98887.81;30618846;28;96784;-62
2023/03/06 23:26:39;;;;;;;30.10;16.73;;;;;;;1.34;70.08;98889.53;30617336;28;96791;-64
2023/03/06 23:41:39;;;;;;;32.40;16.92;;;;;;;0.95;70.68;98901.94;30615808;28;97455;-62
2023/03/06 23:56:40;;;;;;;34.10;17.30;;;;;;;0.77;71.20;98897.38;30615102;28;96614;-64
